Orinda, CA (94563)

5:44 PM PDT on October 24, 2014 (GMT -0700)
Southwood | Change Station
CLOSE
Current Station
Personal Weather Station
Location: Orinda, CA
Elevation: 591 ft
Nearby Weather Stations

Elev 591 ft 37.88 °N, 122.18 °W | Updated 8 minutes ago

Clear
Clear
65.5 °F
Feels Like 65.5 °F
N
1.1
Wind Variable Wind from South

Today
High -- | Low -- °F
--% Chance of Precip.
Yesterday
High -- | Low -- °F
Precip. -- in
7:26 AM 6:19 PM
New Moon, 1% visible
Pressure 29.83 in
Visibility 10.0 miles
Clouds Clear
Dew Point 55 °F
Humidity 70%
Rainfall 0.00 in
Snow Depth Not available.
UV 1 out of 12
Pollen 2.60 out of 12
Ozone Good
PM2.5 Good
Flu Activity Sporadic
METAR KCCR 242353Z 28009KT 10SM CLR 21/13 A2987 RMK AO2 SLP102 T02060128 10233 20189 56008

More Conditions Fewer Conditions

Pressure 29.83 in
Visibility 10.0 miles
Clouds Clear
Dew Point 55 °F
Humidity 70%
Rainfall 0.00 in
Snow Depth Not available.
UV 1 out of 12
Pollen 2.60 out of 12
Ozone Good
PM2.5 Good
Flu Activity Sporadic
METAR KCCR 242353Z 28009KT 10SM CLR 21/13 A2987 RMK AO2 SLP102 T02060128 10233 20189 56008

More Conditions Fewer Conditions

10-Day Weather Forecast

Almanac

Astronomy

Oct. 24, 2014 Rise Set
Actual Time 7:26 AM PDT 6:19 PM PDT
Civil Twilight 6:59 AM PDT 6:45 PM PDT
Nautical Twilight 6:28 AM PDT 7:16 PM PDT
Astronomical Twilight 5:58 AM PDT 7:47 PM PDT
Moon 8:09 AM PDT (10/24) 7:03 PM PDT (10/24)
Length of Visible Light 11h 46m
Length of Day
10h 52m
Tomorrow will be 2m 14s shorter.
New Moon, 1% of the Moon is Illuminated
Today
New Moon
Oct 30
First Quarter
Nov 6
Full
Nov 14
Last Quarter
Nov 22
New

Today's Extremes

State Highs State Lows

Community

WunderPhotos

Upload Photos

1,764,735 photos uploaded!

WunderBlogs® & News

Nearby

Air Quality

  Air Quality AQ Index Pollutant
Yesterday Good
OZONE
Yesterday Good
PM2.5
Current Good
PM2.5
Current Good
OZONE
Friday Good
OZONE
Saturday Good
OZONE
Sunday Good
OZONE
Monday Good
PM2.5
Tuesday Good
PM2.5
Wednesday Good
PM2.5

Snow Depth

Station Depth Elevation
Echo Peak 0 in 7800 ft
Ward Creek #3 12 in 6750 ft
Leavitt Meadows 0 in 7200 ft
Summit Meadow 0 in 9122 ft
Adin Mountain 0 in 6200 ft

Earthquake Activity

City Distance Mag. Time & Date
No recent earthquake activity has been reported nearby.
Minimum magnitude displayed is 2.5.

Coastal Water Temperatures

Place Temperature
San Francisco, CA 63.0 °F
Richmond, CA 64.9 °F
Port Chicago, CA 66.9 °F

Nearby Weather Stations